Time;durP1;ratioP1;P1;durP2;ratioP2;P2;SDS_P1;SDS_P2;PMS_P1;PMS_P2;Temp;Humidity;BMP_temperature;BMP_pressure;BME280_temperature;BME280_humidity;BME280_pressure;Samples;Min_cycle;Max_cycle;Signal;HPM_P1;HPM_P2
2022/02/18 00:02:22;;;;;;;22.10;3.90;;;8.60;99.90;;;;;;5076587;28;20978;-65
2022/02/18 00:04:49;;;;;;;20.17;4.60;;;8.50;99.90;;;;;;5076882;28;20447;-65
2022/02/18 00:07:15;;;;;;;19.63;4.87;;;8.60;99.90;;;;;;5076411;28;20848;-65
2022/02/18 00:09:42;;;;;;;28.10;4.53;;;8.50;99.90;;;;;;5076390;28;20931;-65
2022/02/18 00:12:11;;;;;;;19.10;4.17;;;8.50;99.90;;;;;;5076441;28;20436;-65
2022/02/18 00:14:38;;;;;;;16.57;4.93;;;8.50;99.90;;;;;;5076701;28;20440;-65
2022/02/18 00:17:06;;;;;;;16.20;3.80;;;8.60;99.90;;;;;;5076550;28;20475;-65
2022/02/18 00:19:33;;;;;;;15.83;4.40;;;8.60;99.90;;;;;;5076444;28;20476;-65
2022/02/18 00:21:59;;;;;;;24.03;5.13;;;8.60;99.90;;;;;;5076431;28;20459;-65
2022/02/18 00:24:26;;;;;;;19.47;4.90;;;8.60;99.90;;;;;;5076067;28;20967;-65
2022/02/18 00:26:53;;;;;;;15.40;4.83;;;8.70;99.90;;;;;;5076306;28;20464;-65
2022/02/18 00:29:21;;;;;;;21.63;5.30;;;8.70;99.90;;;;;;5076410;28;20440;-65
2022/02/18 00:31:48;;;;;;;17.90;3.77;;;8.70;99.90;;;;;;5076339;28;20451;-65
2022/02/18 00:34:15;;;;;;;21.30;4.10;;;8.70;99.90;;;;;;5076273;28;20471;-65
2022/02/18 00:36:41;;;;;;;21.93;4.17;;;8.70;99.90;;;;;;5075962;28;20474;-65
2022/02/18 00:39:08;;;;;;;28.27;5.10;;;8.70;99.90;;;;;;5076215;28;20445;-65
2022/02/18 00:41:35;;;;;;;19.70;4.30;;;8.70;99.90;;;;;;5076170;28;20481;-65
2022/02/18 00:44:02;;;;;;;15.07;3.37;;;8.70;99.90;;;;;;5075422;28;20449;-65
2022/02/18 00:46:30;;;;;;;18.33;4.50;;;8.70;99.90;;;;;;5076617;28;20468;-65
2022/02/18 00:48:57;;;;;;;20.77;5.57;;;8.70;99.90;;;;;;5077072;28;21013;-65
2022/02/18 00:51:23;;;;;;;23.90;4.70;;;8.70;99.90;;;;;;5077833;28;20452;-65
2022/02/18 00:53:50;;;;;;;20.80;4.90;;;8.80;99.90;;;;;;5078329;28;20456;-65
2022/02/18 00:56:17;;;;;;;12.87;4.03;;;8.80;99.90;;;;;;5076689;28;20469;-65
2022/02/18 00:58:44;;;;;;;13.20;3.73;;;8.80;99.90;;;;;;5076295;28;20955;-65
2022/02/18 01:01:10;;;;;;;24.03;5.30;;;8.70;99.90;;;;;;5075959;28;20480;-65
2022/02/18 01:03:39;;;;;;;22.00;5.00;;;8.80;99.90;;;;;;5075853;28;20463;-65
2022/02/18 01:06:06;;;;;;;19.83;4.60;;;8.80;99.90;;;;;;5075636;28;20448;-65
2022/02/18 01:08:32;;;;;;;15.40;4.20;;;8.80;99.90;;;;;;5075232;28;20955;-65
2022/02/18 01:10:59;;;;;;;17.47;4.23;;;8.90;99.90;;;;;;5075610;28;20444;-65
2022/02/18 01:13:28;;;;;;;20.53;4.50;;;8.90;99.90;;;;;;5075550;28;20451;-65
2022/02/18 01:15:54;;;;;;;29.33;5.00;;;9.00;99.90;;;;;;5075361;28;20440;-66
2022/02/18 01:18:21;;;;;;;16.47;4.60;;;9.00;99.90;;;;;;5075084;28;20455;-65
2022/02/18 01:20:50;;;;;;;17.77;4.67;;;8.90;99.90;;;;;;5075103;28;20463;-65
2022/02/18 01:23:17;;;;;;;17.80;4.97;;;8.90;99.90;;;;;;5075307;28;20448;-65
2022/02/18 01:25:44;;;;;;;15.87;3.70;;;9.00;99.90;;;;;;5075292;28;20446;-65
2022/02/18 01:28:11;;;;;;;20.67;4.30;;;9.00;99.90;;;;;;5075186;28;20472;-65
2022/02/18 01:30:38;;;;;;;30.33;4.70;;;9.00;99.90;;;;;;5075130;28;20456;-65
2022/02/18 01:33:05;;;;;;;20.00;4.30;;;9.00;99.90;;;;;;5075118;28;20480;-65
2022/02/18 01:35:32;;;;;;;21.37;4.20;;;9.00;99.90;;;;;;5075099;28;20453;-65
2022/02/18 01:38:02;;;;;;;26.23;4.70;;;9.00;99.90;;;;;;5074664;28;20979;-65
2022/02/18 01:40:29;;;;;;;29.30;5.70;;;9.00;99.90;;;;;;5074957;28;20480;-65
2022/02/18 01:42:56;;;;;;;15.57;3.60;;;9.00;99.90;;;;;;5074653;28;20935;-65
2022/02/18 01:45:22;;;;;;;16.90;3.43;;;9.10;99.90;;;;;;5074848;28;20449;-65
2022/02/18 01:47:49;;;;;;;21.17;4.40;;;9.10;99.90;;;;;;5074491;28;20471;-65
2022/02/18 01:50:16;;;;;;;15.90;4.33;;;9.20;99.90;;;;;;5074793;28;20448;-65
2022/02/18 01:52:46;;;;;;;19.47;4.30;;;9.20;99.90;;;;;;5074467;28;20433;-65
2022/02/18 01:55:15;;;;;;;17.47;4.50;;;9.20;99.90;;;;;;5074679;28;20440;-65
2022/02/18 01:57:45;;;;;;;22.37;4.60;;;9.30;99.90;;;;;;5074660;28;20506;-65
2022/02/18 02:00:13;;;;;;;19.60;4.80;;;9.30;99.90;;;;;;5074578;28;20479;-65
2022/02/18 02:02:41;;;;;;;23.40;7.27;;;9.30;99.90;;;;;;5074494;28;20472;-65
2022/02/18 02:05:09;;;;;;;20.20;4.33;;;9.40;99.90;;;;;;5074161;28;20946;-65
2022/02/18 02:07:37;;;;;;;25.13;5.23;;;9.40;99.90;;;;;;5074036;28;20829;-65
2022/02/18 02:10:05;;;;;;;20.57;4.87;;;9.50;99.90;;;;;;5074494;28;20468;-65
2022/02/18 02:12:38;;;;;;;20.97;5.77;;;9.50;99.90;;;;;;5074388;28;20445;-65
2022/02/18 02:15:06;;;;;;;21.93;4.47;;;9.50;99.90;;;;;;5074470;28;20440;-65
2022/02/18 02:17:33;;;;;;;25.80;5.70;;;9.40;99.90;;;;;;5074338;28;20473;-65
2022/02/18 02:20:00;;;;;;;19.30;5.00;;;9.30;99.90;;;;;;5074257;28;20456;-65
2022/02/18 02:22:28;;;;;;;20.83;4.30;;;9.30;99.90;;;;;;5074429;28;20449;-65
2022/02/18 02:24:55;;;;;;;18.80;4.77;;;9.30;99.90;;;;;;5074634;28;20806;-65
2022/02/18 02:27:23;;;;;;;16.87;4.30;;;9.30;99.90;;;;;;5074842;28;20464;-65
2022/02/18 02:29:51;;;;;;;28.13;5.40;;;9.30;99.90;;;;;;5075647;28;20477;-65
2022/02/18 02:32:17;;;;;;;29.90;5.57;;;9.30;99.90;;;;;;5075196;28;20456;-65
2022/02/18 02:34:44;;;;;;;29.17;6.20;;;9.30;99.90;;;;;;5075256;28;20974;-65
2022/02/18 02:37:11;;;;;;;22.87;5.37;;;9.30;99.90;;;;;;5074629;28;20478;-65
2022/02/18 02:39:39;;;;;;;25.10;4.77;;;9.30;99.90;;;;;;5074399;28;20445;-65
2022/02/18 02:42:07;;;;;;;23.13;4.77;;;9.30;99.90;;;;;;5073843;28;20999;-65
2022/02/18 02:44:35;;;;;;;23.37;4.90;;;9.30;99.90;;;;;;5073977;28;20452;-65
2022/02/18 02:47:03;;;;;;;25.33;7.00;;;9.30;99.90;;;;;;5073868;28;20460;-65
2022/02/18 02:49:30;;;;;;;17.03;4.20;;;9.30;99.90;;;;;;5073792;28;20452;-65
2022/02/18 02:51:57;;;;;;;26.67;4.37;;;9.40;99.90;;;;;;5073451;28;20968;-65
2022/02/18 02:54:24;;;;;;;25.87;5.07;;;9.40;99.90;;;;;;5073716;28;20491;-65
2022/02/18 02:56:54;;;;;;;15.33;3.60;;;9.50;99.90;;;;;;5073303;28;20467;-65
2022/02/18 02:59:21;;;;;;;23.27;5.27;;;9.50;99.90;;;;;;5073656;28;20463;-65
2022/02/18 03:01:48;;;;;;;21.80;4.10;;;9.50;99.90;;;;;;5074395;28;20551;-65
2022/02/18 03:04:15;;;;;;;21.90;5.73;;;9.60;99.90;;;;;;5073524;28;20866;-65
2022/02/18 03:06:42;;;;;;;19.37;4.30;;;9.60;99.90;;;;;;5072861;28;20479;-65
2022/02/18 03:09:10;;;;;;;27.57;5.13;;;9.60;99.90;;;;;;5073533;28;20440;-65
2022/02/18 03:11:37;;;;;;;16.40;4.50;;;9.60;99.90;;;;;;5073475;28;20440;-65
2022/02/18 03:14:06;;;;;;;24.03;4.43;;;9.60;99.90;;;;;;5073499;28;20448;-65
2022/02/18 03:16:33;;;;;;;15.53;3.50;;;9.70;99.90;;;;;;5073004;28;20987;-65
2022/02/18 03:18:59;;;;;;;16.23;4.30;;;9.70;99.90;;;;;;5073377;28;20449;-65
2022/02/18 03:21:26;;;;;;;18.67;4.70;;;9.70;99.90;;;;;;5073307;28;20488;-65
2022/02/18 03:23:53;;;;;;;26.43;4.60;;;9.70;99.90;;;;;;5073055;28;20457;-65
2022/02/18 03:26:20;;;;;;;18.63;5.80;;;9.70;99.90;;;;;;5072960;28;20472;-65
2022/02/18 03:28:47;;;;;;;22.60;4.60;;;9.70;99.90;;;;;;5073334;28;20440;-65
2022/02/18 03:31:15;;;;;;;25.60;5.47;;;9.70;99.90;;;;;;5073048;28;20804;-65
2022/02/18 03:33:43;;;;;;;15.97;4.10;;;9.70;99.90;;;;;;5073371;28;20440;-65
2022/02/18 03:36:10;;;;;;;20.90;4.33;;;9.70;99.90;;;;;;5073200;28;20449;-65
2022/02/18 03:38:37;;;;;;;20.33;4.37;;;9.70;99.90;;;;;;5073296;28;20456;-65
2022/02/18 03:41:04;;;;;;;15.73;4.00;;;9.70;99.90;;;;;;5073283;28;20522;-65
2022/02/18 03:43:31;;;;;;;14.53;4.30;;;9.80;99.90;;;;;;5073243;28;20459;-65
2022/02/18 03:45:58;;;;;;;14.27;3.07;;;9.80;99.90;;;;;;5073094;28;20472;-65
2022/02/18 03:48:26;;;;;;;19.93;4.17;;;9.80;99.90;;;;;;5072905;28;20946;-65
2022/02/18 03:50:53;;;;;;;18.70;3.73;;;9.80;99.90;;;;;;5073241;28;20441;-65
2022/02/18 03:53:19;;;;;;;15.33;3.73;;;9.80;99.90;;;;;;5073098;28;20455;-65
2022/02/18 03:55:46;;;;;;;15.33;3.53;;;9.80;99.90;;;;;;5073258;28;20471;-65
2022/02/18 03:58:13;;;;;;;19.90;5.13;;;9.80;99.90;;;;;;5073112;28;20460;-65
2022/02/18 04:00:40;;;;;;;14.93;4.10;;;9.80;99.90;;;;;;5073290;28;20468;-65
2022/02/18 04:03:07;;;;;;;30.60;4.80;;;9.80;99.90;;;;;;5073493;28;20449;-65
2022/02/18 04:05:35;;;;;;;21.30;3.33;;;9.80;99.90;;;;;;5073793;28;20484;-65
2022/02/18 04:08:02;;;;;;;16.10;3.73;;;9.80;99.90;;;;;;5073442;28;20492;-65
2022/02/18 04:10:29;;;;;;;18.07;4.50;;;9.80;99.90;;;;;;5073777;28;20440;-65
2022/02/18 04:12:56;;;;;;;23.17;4.60;;;9.80;99.90;;;;;;5073014;28;20451;-65
2022/02/18 04:15:23;;;;;;;17.87;4.47;;;9.80;99.90;;;;;;5072943;28;20453;-65
2022/02/18 04:17:49;;;;;;;15.20;4.60;;;9.70;99.90;;;;;;5072886;28;20475;-65
2022/02/18 04:20:16;;;;;;;26.83;6.53;;;9.80;99.90;;;;;;5076033;28;20456;-65
2022/02/18 04:22:44;;;;;;;17.70;4.03;;;9.80;99.90;;;;;;5076457;28;20472;-65
2022/02/18 04:25:11;;;;;;;24.30;4.00;;;9.80;99.90;;;;;;5076470;28;20452;-65
2022/02/18 04:27:37;;;;;;;18.17;4.83;;;9.70;99.90;;;;;;5076298;28;20464;-65
2022/02/18 04:30:06;;;;;;;18.93;4.97;;;9.80;99.90;;;;;;5076377;28;20445;-65
2022/02/18 04:32:33;;;;;;;16.50;4.00;;;9.80;99.90;;;;;;5076399;28;20448;-65
2022/02/18 04:35:00;;;;;;;17.90;3.83;;;9.80;99.90;;;;;;5076276;28;20448;-65
2022/02/18 04:37:27;;;;;;;24.80;5.20;;;9.80;99.90;;;;;;5076211;28;20464;-65
2022/02/18 04:39:55;;;;;;;21.80;3.93;;;9.80;99.90;;;;;;5075829;28;20447;-65
2022/02/18 04:42:21;;;;;;;17.83;4.20;;;9.80;99.90;;;;;;5075990;28;20484;-65
2022/02/18 04:44:48;;;;;;;19.67;3.77;;;9.80;99.90;;;;;;5076077;28;20890;-65
2022/02/18 04:47:15;;;;;;;14.30;4.10;;;9.80;99.90;;;;;;5075978;28;20468;-65
2022/02/18 04:49:43;;;;;;;19.93;4.33;;;9.80;99.90;;;;;;5076015;28;20440;-65
2022/02/18 04:52:10;;;;;;;18.23;3.10;;;9.80;99.90;;;;;;5075933;28;20444;-65
2022/02/18 04:54:37;;;;;;;11.90;3.13;;;9.80;99.90;;;;;;5075837;28;20448;-65
2022/02/18 04:57:05;;;;;;;14.43;3.70;;;9.80;99.90;;;;;;5075939;28;20875;-65
2022/02/18 04:59:31;;;;;;;17.50;3.53;;;9.80;99.90;;;;;;5075862;28;20788;-65
2022/02/18 05:01:58;;;;;;;14.83;3.00;;;9.90;99.90;;;;;;5075682;28;20480;-65
2022/02/18 05:04:25;;;;;;;12.97;3.20;;;9.90;99.90;;;;;;5075761;28;20438;-65
2022/02/18 05:06:52;;;;;;;14.93;3.57;;;9.90;99.90;;;;;;5075399;28;20483;-65
2022/02/18 05:09:18;;;;;;;14.50;3.87;;;9.90;99.90;;;;;;5075392;28;20919;-65
2022/02/18 05:11:45;;;;;;;15.37;3.63;;;10.00;99.90;;;;;;5075603;28;20449;-65
2022/02/18 05:14:13;;;;;;;13.20;4.00;;;10.00;99.90;;;;;;5075692;28;20429;-65
2022/02/18 05:16:40;;;;;;;12.83;3.00;;;10.00;99.90;;;;;;5075468;28;20918;-65
2022/02/18 05:19:09;;;;;;;16.37;3.73;;;10.00;99.90;;;;;;5075489;28;20452;-65
2022/02/18 05:21:36;;;;;;;17.80;3.83;;;10.00;99.90;;;;;;5075382;28;20460;-65
2022/02/18 05:24:04;;;;;;;15.70;4.10;;;10.00;99.90;;;;;;5075355;28;20449;-65
2022/02/18 05:26:30;;;;;;;14.43;3.70;;;10.00;99.90;;;;;;5075231;28;20475;-65
2022/02/18 05:28:57;;;;;;;12.73;3.47;;;10.00;99.60;;;;;;5075151;28;20886;-65
2022/02/18 05:31:26;;;;;;;15.27;3.70;;;10.00;99.30;;;;;;5074697;28;20993;-65
2022/02/18 05:33:52;;;;;;;10.27;2.93;;;9.90;99.80;;;;;;5075245;28;20455;-65
2022/02/18 05:36:19;;;;;;;16.67;3.33;;;9.90;99.70;;;;;;5075375;28;20464;-65
2022/02/18 05:38:46;;;;;;;11.50;2.70;;;9.90;99.70;;;;;;5075672;28;20457;-65
2022/02/18 05:41:13;;;;;;;16.83;4.10;;;9.90;99.80;;;;;;5075807;28;21018;-65
2022/02/18 05:43:41;;;;;;;10.27;3.13;;;9.80;99.70;;;;;;5076938;28;20459;-66
2022/02/18 05:46:08;;;;;;;12.33;2.83;;;9.80;99.80;;;;;;5076880;28;20444;-65
2022/02/18 05:48:36;;;;;;;9.30;2.60;;;9.80;99.90;;;;;;5075964;28;20425;-65
2022/02/18 05:51:04;;;;;;;15.93;3.30;;;9.70;99.90;;;;;;5075365;28;20447;-65
2022/02/18 05:53:32;;;;;;;15.60;3.70;;;9.70;99.90;;;;;;5075006;28;20452;-65
2022/02/18 05:55:59;;;;;;;12.43;2.97;;;9.70;99.90;;;;;;5074821;28;20451;-65
2022/02/18 05:58:26;;;;;;;14.70;3.03;;;9.70;99.90;;;;;;5074411;28;20931;-65
2022/02/18 06:00:52;;;;;;;17.77;3.70;;;9.70;99.90;;;;;;5074645;28;20443;-65
2022/02/18 06:03:19;;;;;;;20.90;4.17;;;9.70;99.90;;;;;;5074242;28;20441;-65
2022/02/18 06:05:47;;;;;;;15.93;5.13;;;9.60;99.90;;;;;;5074214;28;20455;-65
2022/02/18 06:08:14;;;;;;;16.53;4.53;;;9.60;99.90;;;;;;5074051;28;20542;-66
2022/02/18 06:10:41;;;;;;;16.00;4.47;;;9.60;99.90;;;;;;5074099;28;20970;-65
2022/02/18 06:13:08;;;;;;;15.37;3.63;;;9.50;99.90;;;;;;5074378;28;20437;-65
2022/02/18 06:15:34;;;;;;;17.40;2.90;;;9.60;99.90;;;;;;5074409;28;20433;-66
2022/02/18 06:18:01;;;;;;;13.17;3.40;;;9.50;99.90;;;;;;5074315;28;20476;-65
2022/02/18 06:20:28;;;;;;;17.83;3.33;;;9.60;99.90;;;;;;5074265;28;20453;-65
2022/02/18 06:22:56;;;;;;;13.20;3.20;;;9.60;99.90;;;;;;5074240;28;20467;-65
2022/02/18 06:25:23;;;;;;;19.53;4.27;;;9.50;99.90;;;;;;5073848;28;20958;-66
2022/02/18 06:27:50;;;;;;;17.07;4.10;;;9.50;99.90;;;;;;5073713;28;20552;-66
2022/02/18 06:30:17;;;;;;;16.43;3.70;;;9.50;99.90;;;;;;5074133;28;20456;-66
2022/02/18 06:32:43;;;;;;;16.50;3.57;;;9.50;99.90;;;;;;5074091;28;20436;-66
2022/02/18 06:35:10;;;;;;;17.20;4.53;;;9.60;99.90;;;;;;5074081;28;20827;-66
2022/02/18 06:37:37;;;;;;;18.07;4.53;;;9.60;99.90;;;;;;5073880;28;20487;-66
2022/02/18 06:40:06;;;;;;;14.43;3.30;;;9.60;99.90;;;;;;5073574;28;20811;-66
2022/02/18 06:42:33;;;;;;;10.73;3.37;;;9.60;99.90;;;;;;5072837;28;20504;-65
2022/02/18 06:44:59;;;;;;;12.70;3.43;;;9.60;99.90;;;;;;5073860;28;20453;-65
2022/02/18 06:47:26;;;;;;;14.67;3.30;;;9.60;99.90;;;;;;5073781;28;20456;-65
2022/02/18 06:49:53;;;;;;;15.30;3.50;;;9.60;99.90;;;;;;5073818;28;20455;-65
2022/02/18 06:52:20;;;;;;;11.20;3.20;;;9.60;99.90;;;;;;5073817;28;20467;-65
2022/02/18 06:54:46;;;;;;;13.33;3.60;;;9.60;99.90;;;;;;5073728;28;20471;-65
2022/02/18 06:57:14;;;;;;;12.00;3.40;;;9.60;99.90;;;;;;5073273;28;20469;-65
2022/02/18 06:59:41;;;;;;;17.90;4.07;;;9.60;99.90;;;;;;5073750;28;20455;-65
2022/02/18 07:02:08;;;;;;;15.67;3.90;;;9.70;99.90;;;;;;5073433;28;20990;-65
2022/02/18 07:04:35;;;;;;;13.90;3.30;;;9.70;99.90;;;;;;5073832;28;20448;-65
2022/02/18 07:07:02;;;;;;;19.63;5.80;;;9.70;99.90;;;;;;5073463;28;20507;-65
2022/02/18 07:09:28;;;;;;;16.33;3.67;;;9.70;99.90;;;;;;5073568;28;20904;-65
2022/02/18 07:11:55;;;;;;;14.93;4.13;;;9.80;99.90;;;;;;5073908;28;20448;-65
2022/02/18 07:14:25;;;;;;;19.03;4.33;;;9.80;99.90;;;;;;5073620;28;20944;-65
2022/02/18 07:16:52;;;;;;;16.60;4.43;;;9.80;99.90;;;;;;5074117;28;20518;-65
2022/02/18 07:19:19;;;;;;;18.13;4.87;;;9.80;99.90;;;;;;5074389;28;20452;-65
2022/02/18 07:21:45;;;;;;;19.80;6.83;;;9.80;99.90;;;;;;5075788;28;20484;-65
2022/02/18 07:24:14;;;;;;;23.33;4.87;;;9.90;99.90;;;;;;5075076;28;20448;-65
2022/02/18 07:26:41;;;;;;;10.97;4.23;;;9.90;99.90;;;;;;5073987;28;20559;-65
2022/02/18 07:29:08;;;;;;;18.23;3.97;;;9.90;99.90;;;;;;5073852;28;20445;-65
2022/02/18 07:31:36;;;;;;;16.20;4.07;;;9.90;99.90;;;;;;5074037;28;20464;-65
2022/02/18 07:34:03;;;;;;;13.40;4.30;;;9.90;99.90;;;;;;5073867;28;20449;-65
2022/02/18 07:36:30;;;;;;;25.37;4.17;;;9.80;99.90;;;;;;5073028;28;20979;-65
2022/02/18 07:38:56;;;;;;;17.07;3.30;;;9.80;99.90;;;;;;5073502;28;20478;-65
2022/02/18 07:41:23;;;;;;;16.47;3.23;;;9.80;99.90;;;;;;5073213;28;20507;-65
2022/02/18 07:43:50;;;;;;;17.87;4.63;;;9.80;99.90;;;;;;5072945;28;20493;-65
2022/02/18 07:46:17;;;;;;;17.90;3.50;;;9.80;99.90;;;;;;5073127;28;20448;-65
2022/02/18 07:48:45;;;;;;;10.03;3.47;;;9.90;99.90;;;;;;5073228;28;20445;-65
2022/02/18 07:51:12;;;;;;;18.70;4.00;;;10.00;99.90;;;;;;5073267;28;20445;-65
2022/02/18 07:53:39;;;;;;;17.20;3.97;;;10.00;99.90;;;;;;5075666;28;20447;-65
2022/02/18 07:56:06;;;;;;;12.77;3.70;;;10.10;99.90;;;;;;5077063;28;20444;-66
2022/02/18 07:58:32;;;;;;;10.23;3.00;;;10.10;99.90;;;;;;5077430;28;20494;-65
2022/02/18 08:00:59;;;;;;;13.53;2.60;;;10.10;99.90;;;;;;5077114;28;20444;-65
2022/02/18 08:03:26;;;;;;;16.10;3.83;;;10.20;99.90;;;;;;5076888;28;20503;-65
2022/02/18 08:05:54;;;;;;;10.87;3.50;;;10.20;99.90;;;;;;5076633;28;20436;-65
2022/02/18 08:08:24;;;;;;;16.33;3.60;;;10.30;99.90;;;;;;5076503;28;20484;-65
2022/02/18 08:10:51;;;;;;;11.13;2.93;;;10.40;99.90;;;;;;5077350;28;20433;-65
2022/02/18 08:13:18;;;;;;;6.73;1.63;;;10.40;99.90;;;;;;5076629;28;20437;-65
2022/02/18 08:15:45;;;;;;;9.90;2.40;;;10.50;99.90;;;;;;5076944;28;20447;-65
2022/02/18 08:18:17;;;;;;;8.60;2.80;;;10.50;99.90;;;;;;5076648;28;20472;-65
2022/02/18 08:20:44;;;;;;;7.70;2.23;;;10.60;99.90;;;;;;5076872;28;20429;-65
2022/02/18 08:23:12;;;;;;;6.80;1.93;;;10.70;99.90;;;;;;5076505;28;20484;-65
2022/02/18 08:25:39;;;;;;;6.13;1.80;;;10.70;99.90;;;;;;5076154;28;20962;-65
2022/02/18 08:28:06;;;;;;;5.30;1.50;;;10.80;99.90;;;;;;5076443;28;20479;-65
2022/02/18 08:30:33;;;;;;;6.67;1.00;;;10.90;99.90;;;;;;5076541;28;20811;-65
2022/02/18 08:32:59;;;;;;;3.57;1.50;;;11.00;99.90;;;;;;5076345;28;20441;-65
2022/02/18 08:35:27;;;;;;;5.97;1.80;;;11.00;99.90;;;;;;5076361;28;20475;-65
2022/02/18 08:37:54;;;;;;;3.40;1.43;;;11.10;99.90;;;;;;5076189;28;20468;-65
2022/02/18 08:40:22;;;;;;;1.97;1.20;;;11.20;99.90;;;;;;5076287;28;20445;-65
2022/02/18 08:42:49;;;;;;;2.20;0.90;;;11.20;99.90;;;;;;5076172;28;20480;-65
2022/02/18 08:45:16;;;;;;;4.83;1.60;;;11.30;99.90;;;;;;5076150;28;20451;-65
2022/02/18 08:47:42;;;;;;;4.00;1.30;;;11.40;99.90;;;;;;5076181;28;20464;-65
2022/02/18 08:50:11;;;;;;;4.37;1.03;;;11.40;99.90;;;;;;5076327;28;20519;-65
2022/02/18 08:52:38;;;;;;;1.27;0.73;;;11.50;99.90;;;;;;5075850;28;20437;-65
2022/02/18 08:55:06;;;;;;;2.93;0.90;;;11.60;99.90;;;;;;5076759;28;20433;-65
2022/02/18 08:57:35;;;;;;;1.33;0.90;;;11.60;99.90;;;;;;5077056;28;20464;-65
2022/02/18 09:00:02;;;;;;;2.83;0.87;;;11.70;99.90;;;;;;5077835;28;20931;-65
2022/02/18 09:02:28;;;;;;;4.47;1.27;;;11.70;99.90;;;;;;5077827;28;20557;-65
2022/02/18 09:04:55;;;;;;;1.67;0.50;;;11.80;99.90;;;;;;5076493;28;20457;-65
2022/02/18 09:07:22;;;;;;;2.30;0.77;;;11.80;99.90;;;;;;5076125;28;20476;-65
2022/02/18 09:09:49;;;;;;;3.60;0.80;;;11.90;99.90;;;;;;5075990;28;20440;-65
2022/02/18 09:12:16;;;;;;;2.10;0.53;;;11.90;99.90;;;;;;5075921;28;20444;-65
2022/02/18 09:14:44;;;;;;;0.80;0.70;;;11.90;99.90;;;;;;5075710;28;20452;-65
2022/02/18 09:17:11;;;;;;;1.73;0.60;;;12.00;99.90;;;;;;5075614;28;20467;-65
2022/02/18 09:19:38;;;;;;;4.10;0.80;;;12.00;99.90;;;;;;5075250;28;20957;-66
2022/02/18 09:22:05;;;;;;;1.40;0.83;;;12.10;99.90;;;;;;5075480;28;20428;-65
2022/02/18 09:24:32;;;;;;;1.73;0.50;;;12.10;99.90;;;;;;5075441;28;20444;-65
2022/02/18 09:26:59;;;;;;;0.57;0.40;;;12.20;99.90;;;;;;5075116;28;20460;-68
2022/02/18 09:29:27;;;;;;;1.90;0.60;;;12.20;99.90;;;;;;5075427;28;20448;-68
2022/02/18 09:31:55;;;;;;;1.00;0.70;;;12.20;99.90;;;;;;5075303;28;20441;-68
2022/02/18 09:34:22;;;;;;;1.60;0.70;;;12.20;99.90;;;;;;5075254;28;20432;-68
2022/02/18 09:36:49;;;;;;;1.23;0.67;;;12.30;99.90;;;;;;5075185;28;20452;-69
2022/02/18 09:39:15;;;;;;;1.07;0.60;;;12.30;99.90;;;;;;5076011;28;20452;-67
2022/02/18 09:41:42;;;;;;;1.60;0.53;;;12.30;99.90;;;;;;5075099;28;20448;-66
2022/02/18 09:44:12;;;;;;;2.60;0.70;;;12.40;99.90;;;;;;5075309;28;20475;-66
2022/02/18 09:46:40;;;;;;;2.47;0.60;;;12.40;99.90;;;;;;5074920;28;20491;-66
2022/02/18 09:49:10;;;;;;;3.23;0.90;;;12.40;99.90;;;;;;5074610;28;20966;-67
2022/02/18 09:51:39;;;;;;;1.03;0.80;;;12.50;99.90;;;;;;5074586;28;20904;-67
2022/02/18 09:54:06;;;;;;;1.63;1.03;;;12.50;99.90;;;;;;5074839;28;20448;-67
2022/02/18 09:56:35;;;;;;;4.40;1.13;;;12.50;99.90;;;;;;5074977;28;20468;-66
2022/02/18 09:59:04;;;;;;;3.43;0.70;;;12.60;99.90;;;;;;5074761;28;20441;-66
2022/02/18 10:01:32;;;;;;;3.17;0.93;;;12.60;99.90;;;;;;5074671;28;20444;-66
2022/02/18 10:04:00;;;;;;;1.37;0.50;;;12.70;99.90;;;;;;5074563;28;20484;-66
2022/02/18 10:06:29;;;;;;;1.33;0.60;;;12.80;99.90;;;;;;5074304;28;20469;-67
2022/02/18 10:08:56;;;;;;;7.40;1.57;;;12.80;99.90;;;;;;5074595;28;20437;-66
2022/02/18 10:11:23;;;;;;;0.97;0.50;;;12.80;99.90;;;;;;5074643;28;20432;-66
2022/02/18 10:13:50;;;;;;;1.70;0.50;;;12.90;99.90;;;;;;5074405;28;20445;-66
2022/02/18 10:16:19;;;;;;;1.53;0.70;;;12.90;99.90;;;;;;5073531;28;20456;-66
2022/02/18 10:18:52;;;;;;;2.30;0.57;;;13.00;99.90;;;;;;5074515;28;20444;-66
2022/02/18 10:21:21;;;;;;;2.93;0.47;;;13.00;99.90;;;;;;5075143;28;20490;-65
2022/02/18 10:23:49;;;;;;;1.35;0.60;;;13.00;99.90;;;;;;5073838;28;20500;-65
2022/02/18 10:26:16;;;;;;;2.00;0.77;;;13.10;99.90;;;;;;5074307;28;20209;-65
2022/02/18 10:28:56;;;;;;;6.10;0.87;;;13.20;99.90;;;;;;5074081;28;20940;-65
2022/02/18 10:31:23;;;;;;;1.17;0.50;;;13.20;99.90;;;;;;5074390;28;20439;-65
2022/02/18 10:34:01;;;;;;;4.03;0.63;;;13.30;99.90;;;;;;5074442;28;20444;-65
2022/02/18 10:36:36;;;;;;;1.40;0.40;;;13.40;99.90;;;;;;5074945;28;20991;-65
2022/02/18 10:39:27;;;;;;;1.07;0.70;;;13.40;99.90;;;;;;5075839;28;20468;-65
2022/02/18 10:41:57;;;;;;;1.80;0.63;;;13.50;99.90;;;;;;5077116;28;20421;-65
2022/02/18 10:44:25;;;;;;;1.90;0.70;;;13.50;99.90;;;;;;5075496;28;20464;-65
2022/02/18 10:46:56;;;;;;;3.30;0.70;;;13.50;99.90;;;;;;5074567;28;20980;-65
2022/02/18 10:49:23;;;;;;;1.33;0.50;;;13.50;99.90;;;;;;5074384;28;20847;-65
2022/02/18 10:51:51;;;;;;;5.00;0.53;;;13.40;99.90;;;;;;5074249;28;20444;-65
2022/02/18 10:54:18;;;;;;;0.90;0.40;;;13.50;99.90;;;;;;5074000;28;20443;-65
2022/02/18 10:56:46;;;;;;;3.30;0.60;;;13.50;99.90;;;;;;5073943;28;20495;-65
2022/02/18 10:59:31;;;;;;;2.00;0.43;;;13.50;99.90;;;;;;5073902;28;20456;-65
2022/02/18 11:01:58;;;;;;;2.30;0.40;;;13.50;99.90;;;;;;5074576;28;20440;-65
2022/02/18 11:04:28;;;;;;;0.50;0.40;;;13.60;99.90;;;;;;5073402;28;20482;-65
2022/02/18 11:07:12;;;;;;;2.37;0.40;;;13.60;99.90;;;;;;5073302;28;20472;-65
2022/02/18 11:09:39;;;;;;;1.60;0.60;;;13.60;99.90;;;;;;5073083;28;20452;-65
2022/02/18 11:12:12;;;;;;;4.17;0.80;;;13.60;99.90;;;;;;5073531;28;20440;-65
2022/02/18 11:14:41;;;;;;;2.47;0.50;;;13.60;99.90;;;;;;5073533;28;20433;-65
2022/02/18 11:17:08;;;;;;;2.10;0.40;;;13.60;99.90;;;;;;5073517;28;20460;-65
2022/02/18 11:19:35;;;;;;;1.37;0.40;;;13.60;99.90;;;;;;5073350;28;20459;-65
2022/02/18 11:22:03;;;;;;;7.60;0.70;;;13.70;99.90;;;;;;5074348;28;20448;-65
2022/02/18 11:24:31;;;;;;;6.60;0.80;;;13.70;99.90;;;;;;5073234;28;20472;-65
2022/02/18 11:27:01;;;;;;;20.43;1.73;;;13.70;99.90;;;;;;5073283;28;20474;-65
2022/02/18 11:29:29;;;;;;;8.87;0.80;;;13.80;99.90;;;;;;5073429;28;20444;-65
2022/02/18 11:32:00;;;;;;;3.03;0.80;;;13.80;99.90;;;;;;5073566;28;20452;-65
2022/02/18 11:34:58;;;;;;;4.30;0.83;;;13.80;99.90;;;;;;5072430;28;20480;-67
2022/02/18 11:38:01;;;;;;;20.87;1.50;;;13.80;99.90;;;;;;5072959;28;20469;-65
2022/02/18 11:40:53;;;;;;;3.73;0.87;;;13.80;99.90;;;;;;5064680;28;20463;-65
2022/02/18 11:43:27;;;;;;;5.83;0.90;;;13.80;99.90;;;;;;5073453;28;20464;-65
2022/02/18 11:46:01;;;;;;;2.77;0.50;;;13.80;99.90;;;;;;5073313;28;20429;-65
2022/02/18 11:48:43;;;;;;;11.20;0.90;;;13.80;99.90;;;;;;5074430;28;20428;-65
2022/02/18 11:51:11;;;;;;;11.70;1.37;;;13.90;99.90;;;;;;5073265;28;20440;-65
2022/02/18 11:53:40;;;;;;;19.17;1.30;;;13.90;99.90;;;;;;5072853;28;20440;-65
2022/02/18 11:56:07;;;;;;;3.57;0.90;;;14.00;99.90;;;;;;5073175;28;20456;-66
2022/02/18 11:58:49;;;;;;;14.07;1.47;;;14.00;99.90;;;;;;5073082;28;20444;-65
2022/02/18 12:01:17;;;;;;;6.13;0.70;;;14.10;99.90;;;;;;5072751;28;20425;-65
2022/02/18 12:04:15;;;;;;;12.90;0.70;;;14.10;99.90;;;;;;5072992;28;20487;-65
2022/02/18 12:06:42;;;;;;;2.70;0.73;;;14.10;99.90;;;;;;5072815;28;20476;-65
2022/02/18 12:09:09;;;;;;;11.43;1.57;;;14.20;99.90;;;;;;5073134;28;20433;-65
2022/02/18 12:11:43;;;;;;;9.70;0.83;;;14.10;99.90;;;;;;5072676;28;20440;-65
2022/02/18 12:14:12;;;;;;;9.63;1.27;;;14.20;99.90;;;;;;5073226;28;20460;-65
2022/02/18 12:16:41;;;;;;;16.80;1.27;;;14.20;99.90;;;;;;5073846;28;20505;-65
2022/02/18 12:19:13;;;;;;;25.73;2.10;;;14.20;99.90;;;;;;5074315;28;20467;-65
2022/02/18 12:22:02;;;;;;;11.60;1.33;;;14.30;99.90;;;;;;5074845;28;20448;-65
2022/02/18 12:24:43;;;;;;;9.47;0.93;;;14.40;99.90;;;;;;5074190;28;20557;-65
2022/02/18 12:27:34;;;;;;;12.40;1.50;;;14.40;99.90;;;;;;5073694;28;21003;-65
2022/02/18 12:30:31;;;;;;;8.37;1.10;;;14.40;99.90;;;;;;5073516;28;20780;-65
2022/02/18 12:32:59;;;;;;;25.27;1.53;;;14.30;99.90;;;;;;5073454;28;20482;-65
2022/02/18 12:35:31;;;;;;;8.87;1.17;;;14.30;99.90;;;;;;5073179;28;20455;-65
2022/02/18 12:38:00;;;;;;;16.60;1.20;;;14.30;99.90;;;;;;5072605;28;20468;-65
2022/02/18 12:40:27;;;;;;;15.63;1.77;;;14.30;99.90;;;;;;5074972;28;20932;-65
2022/02/18 12:43:01;;;;;;;10.43;1.23;;;14.30;99.90;;;;;;5076647;28;20471;-65
2022/02/18 12:45:40;;;;;;;6.00;1.20;;;14.40;99.90;;;;;;5076679;28;20443;-65
2022/02/18 12:48:08;;;;;;;3.23;0.60;;;14.60;99.90;;;;;;5076206;28;20464;-65
2022/02/18 12:50:38;;;;;;;12.00;1.90;;;14.80;99.60;;;;;;5076305;28;20445;-65
2022/02/18 12:53:05;;;;;;;5.10;1.00;;;15.00;99.90;;;;;;5076137;28;20449;-65